createdAt,value
2018-05-16T00:00:54.622Z,74.90
2018-05-16T00:03:22.929Z,74.70
2018-05-16T00:05:51.210Z,75.10
2018-05-16T00:08:19.516Z,75.10
2018-05-16T00:10:48.571Z,75.20
2018-05-16T00:13:16.909Z,75.20
2018-05-16T00:15:45.196Z,76.00
2018-05-16T00:18:13.540Z,75.00
2018-05-16T00:20:41.842Z,75.40
2018-05-16T00:23:10.160Z,75.80
2018-05-16T00:25:38.451Z,76.20
2018-05-16T00:28:06.796Z,76.20
2018-05-16T00:30:35.083Z,76.40
2018-05-16T00:33:03.397Z,76.70
2018-05-16T00:35:31.694Z,77.00
2018-05-16T00:38:00.080Z,77.00
2018-05-16T00:40:28.368Z,77.10
2018-05-16T00:42:56.687Z,77.50
2018-05-16T00:45:24.988Z,77.40
2018-05-16T00:47:54.077Z,77.60
2018-05-16T00:50:22.371Z,77.60
2018-05-16T00:52:50.710Z,77.50
2018-05-16T00:55:18.992Z,77.40
2018-05-16T00:57:47.311Z,77.20
2018-05-16T01:00:15.605Z,77.00
2018-05-16T01:02:43.913Z,77.00
2018-05-16T01:05:12.193Z,77.10
2018-05-16T01:07:40.521Z,77.30
2018-05-16T01:10:08.809Z,76.90
2018-05-16T01:12:37.124Z,76.90
2018-05-16T01:15:05.453Z,77.10
2018-05-16T01:17:33.743Z,76.90
2018-05-16T01:20:02.060Z,76.50
2018-05-16T01:22:30.359Z,76.60
2018-05-16T01:24:58.688Z,76.80
2018-05-16T01:27:26.975Z,77.00
2018-05-16T01:29:55.280Z,77.00
2018-05-16T01:32:23.571Z,76.70
2018-05-16T01:34:51.882Z,76.80
2018-05-16T01:37:20.170Z,77.00
2018-05-16T01:39:48.482Z,77.40
2018-05-16T01:42:16.760Z,77.50
2018-05-16T01:44:45.064Z,77.90
2018-05-16T01:47:14.112Z,78.60
2018-05-16T01:49:43.194Z,78.80
2018-05-16T01:52:11.484Z,78.80
2018-05-16T01:54:39.787Z,79.20
2018-05-16T01:57:08.096Z,79.40
2018-05-16T01:59:37.171Z,79.40
2018-05-16T02:02:05.449Z,79.40
2018-05-16T02:04:33.761Z,79.30
2018-05-16T02:07:02.052Z,79.10
2018-05-16T02:09:30.380Z,79.00
2018-05-16T02:11:58.667Z,78.90
2018-05-16T02:14:27.761Z,79.60
2018-05-16T02:16:56.820Z,80.80
2018-05-16T02:19:25.128Z,80.70
2018-05-16T02:21:53.436Z,80.00
2018-05-16T02:24:21.757Z,80.20
2018-05-16T02:26:50.044Z,79.80
2018-05-16T02:29:18.363Z,79.90
2018-05-16T02:31:46.646Z,80.10
2018-05-16T02:34:14.956Z,79.90
2018-05-16T02:36:44.031Z,80.10
2018-05-16T02:39:12.367Z,80.10
2018-05-16T02:41:40.656Z,81.10
2018-05-16T02:44:09.774Z,80.10
2018-05-16T02:46:38.056Z,80.10
2018-05-16T02:49:06.373Z,80.50
2018-05-16T02:51:34.677Z,80.90
2018-05-16T02:54:03.733Z,80.70
2018-05-16T02:56:32.057Z,80.70
2018-05-16T02:59:01.107Z,80.50
2018-05-16T03:01:29.426Z,80.50
2018-05-16T03:03:57.740Z,80.50
2018-05-16T03:06:26.062Z,80.60
2018-05-16T03:08:54.350Z,80.90
2018-05-16T03:11:22.676Z,80.70
2018-05-16T03:13:50.959Z,80.90
2018-05-16T03:16:19.272Z,81.80
2018-05-16T03:18:47.557Z,82.20
2018-05-16T03:21:15.884Z,82.60
2018-05-16T03:23:44.177Z,82.70
2018-05-16T03:26:12.483Z,83.50
2018-05-16T03:28:41.532Z,85.60
2018-05-16T03:31:09.840Z,85.40
2018-05-16T03:33:38.159Z,85.10
2018-05-16T03:36:06.464Z,84.70
2018-05-16T03:38:34.752Z,85.20
2018-05-16T03:41:03.067Z,85.80
2018-05-16T03:43:32.128Z,86.80
2018-05-16T03:46:00.437Z,86.80
2018-05-16T03:48:28.731Z,85.90
2018-05-16T03:50:57.058Z,86.40
2018-05-16T03:53:25.356Z,86.90
2018-05-16T03:55:53.717Z,87.00
2018-05-16T03:58:33.730Z,86.80
2018-05-16T04:01:13.917Z,86.60
2018-05-16T04:03:53.900Z,86.80
2018-05-16T04:06:23.005Z,86.60
2018-05-16T04:08:51.290Z,87.30
2018-05-16T04:11:20.393Z,87.50
2018-05-16T04:13:49.449Z,88.40
2018-05-16T04:16:17.810Z,88.40
2018-05-16T04:18:46.153Z,88.40
2018-05-16T04:21:14.486Z,88.60
2018-05-16T04:23:42.776Z,89.20
2018-05-16T04:26:11.100Z,88.60
2018-05-16T04:28:39.405Z,88.60
2018-05-16T04:31:07.717Z,89.70
2018-05-16T04:33:36.772Z,90.40
2018-05-16T04:36:05.105Z,90.00
2018-05-16T04:38:34.168Z,89.70
2018-05-16T04:41:02.604Z,89.70
2018-05-16T04:43:30.964Z,89.40
2018-05-16T04:45:59.296Z,89.60
2018-05-16T04:48:27.581Z,89.70
2018-05-16T04:50:55.887Z,90.00
2018-05-16T04:53:24.940Z,89.20
2018-05-16T04:55:53.244Z,89.20
2018-05-16T04:58:21.525Z,89.00
2018-05-16T05:00:49.919Z,88.90
2018-05-16T05:03:18.151Z,88.40
2018-05-16T05:05:46.434Z,88.40
2018-05-16T05:08:14.760Z,88.10
2018-05-16T05:10:43.073Z,88.10
2018-05-16T05:13:11.396Z,87.60
2018-05-16T05:15:40.450Z,88.50
2018-05-16T05:18:08.764Z,87.80
2018-05-16T05:20:37.072Z,87.60
2018-05-16T05:23:05.427Z,88.00
2018-05-16T05:25:34.489Z,86.00
2018-05-16T05:28:02.819Z,86.00
2018-05-16T05:30:31.155Z,87.50
2018-05-16T05:32:59.464Z,88.30
2018-05-16T05:35:28.515Z,88.30
2018-05-16T05:37:56.870Z,88.30
2018-05-16T05:40:25.159Z,88.30
2018-05-16T05:42:53.488Z,88.50
2018-05-16T05:45:21.807Z,87.50
2018-05-16T05:47:50.129Z,88.00
2018-05-16T05:50:18.430Z,87.40
2018-05-16T05:52:46.783Z,86.10
2018-05-16T05:55:15.903Z,85.10
2018-05-16T05:57:44.258Z,85.10
2018-05-16T06:00:12.594Z,86.20
2018-05-16T06:02:40.886Z,86.40
2018-05-16T06:05:09.174Z,86.30
2018-05-16T06:07:37.492Z,86.00
2018-05-16T06:10:06.554Z,83.70
2018-05-16T06:12:34.867Z,83.70
2018-05-16T06:15:03.167Z,84.10
2018-05-16T06:17:31.505Z,83.70
2018-05-16T06:20:00.571Z,83.20
2018-05-16T06:22:28.900Z,83.20
2018-05-16T06:24:57.186Z,82.60
2018-05-16T06:27:25.572Z,82.90
2018-05-16T06:29:53.812Z,82.60
2018-05-16T06:32:22.901Z,83.00
2018-05-16T06:34:51.192Z,83.00
2018-05-16T06:37:20.278Z,83.50
2018-05-16T06:39:49.338Z,83.90
2018-05-16T06:42:17.668Z,83.90
2018-05-16T06:44:45.957Z,84.00
2018-05-16T06:47:14.293Z,84.60
2018-05-16T06:49:42.617Z,84.40
2018-05-16T06:52:10.912Z,83.80
2018-05-16T06:54:39.269Z,84.70
2018-05-16T06:57:07.568Z,82.40
2018-05-16T06:59:35.889Z,82.20
2018-05-16T07:02:04.189Z,84.00
2018-05-16T07:04:32.521Z,85.70
2018-05-16T07:07:00.820Z,84.30
2018-05-16T07:09:29.147Z,83.00
2018-05-16T07:11:57.428Z,79.80
2018-05-16T07:14:25.757Z,80.80
2018-05-16T07:16:54.040Z,80.30
2018-05-16T07:19:23.108Z,77.80
2018-05-16T07:21:51.388Z,77.80
2018-05-16T07:24:19.717Z,80.40
2018-05-16T07:26:48.009Z,81.30
2018-05-16T07:29:16.309Z,77.90
2018-05-16T07:31:44.591Z,78.00
2018-05-16T07:34:12.887Z,79.30
2018-05-16T07:36:41.193Z,78.40
2018-05-16T07:39:09.541Z,77.40
2018-05-16T07:41:37.815Z,76.80
2018-05-16T07:44:06.922Z,76.60
2018-05-16T07:46:35.993Z,77.20
2018-05-16T07:49:04.312Z,77.20
2018-05-16T07:51:32.599Z,74.00
2018-05-16T07:54:00.926Z,72.70
2018-05-16T07:56:29.936Z,72.90
2018-05-16T07:58:58.256Z,74.10
2018-05-16T08:01:26.538Z,74.50
2018-05-16T08:03:54.852Z,75.00
2018-05-16T08:06:23.146Z,76.60
2018-05-16T08:08:52.232Z,75.90
2018-05-16T08:11:20.533Z,75.80
2018-05-16T08:13:49.650Z,74.30
2018-05-16T08:16:17.948Z,74.30
2018-05-16T08:18:46.273Z,73.30
2018-05-16T08:21:15.352Z,72.50
2018-05-16T08:23:43.712Z,72.30
2018-05-16T08:26:12.068Z,70.40
2018-05-16T08:28:40.413Z,70.30
2018-05-16T08:31:08.793Z,70.80
2018-05-16T08:33:37.112Z,68.10
2018-05-16T08:36:06.192Z,67.90
2018-05-16T08:38:34.483Z,67.90
2018-05-16T08:41:02.823Z,69.80
2018-05-16T08:43:31.880Z,67.80
2018-05-16T08:46:00.189Z,67.80
2018-05-16T08:48:29.281Z,68.60
2018-05-16T08:50:58.404Z,67.70
2018-05-16T08:53:26.795Z,67.50
2018-05-16T08:55:55.145Z,67.30
2018-05-16T08:58:23.514Z,64.10
2018-05-16T09:00:52.735Z,64.20
2018-05-16T09:03:21.069Z,64.10
2018-05-16T09:05:49.440Z,66.10
2018-05-16T09:08:17.728Z,65.80
2018-05-16T09:10:46.045Z,65.80
2018-05-16T09:13:14.344Z,66.70
2018-05-16T09:15:42.652Z,61.70
2018-05-16T09:18:10.934Z,62.90
2018-05-16T09:20:39.253Z,64.70
2018-05-16T09:23:07.537Z,64.20
2018-05-16T09:25:35.846Z,63.50
2018-05-16T09:28:04.910Z,63.40
2018-05-16T09:30:33.229Z,62.50
2018-05-16T09:33:01.518Z,61.70
2018-05-16T09:35:29.826Z,60.80
2018-05-16T09:37:58.129Z,59.30
2018-05-16T09:40:26.571Z,60.70
2018-05-16T09:42:54.787Z,59.40
2018-05-16T09:45:23.115Z,59.00
2018-05-16T09:47:51.397Z,57.50
2018-05-16T09:50:19.717Z,59.00
2018-05-16T09:52:48.025Z,58.60
2018-05-16T09:55:16.348Z,57.90
2018-05-16T09:57:44.661Z,58.70
2018-05-16T10:00:13.013Z,59.80
2018-05-16T10:02:42.127Z,61.40
2018-05-16T10:05:10.442Z,61.40
2018-05-16T10:07:38.722Z,61.90
2018-05-16T10:10:07.045Z,60.60
2018-05-16T10:12:35.340Z,58.60
2018-05-16T10:15:03.669Z,58.10
2018-05-16T10:17:31.952Z,58.80
2018-05-16T10:20:01.035Z,58.30
2018-05-16T10:22:29.352Z,58.30
2018-05-16T10:24:57.652Z,57.60
2018-05-16T10:27:25.955Z,57.60
2018-05-16T10:29:54.460Z,57.70
2018-05-16T10:32:23.533Z,57.40
2018-05-16T10:34:51.833Z,56.70
2018-05-16T10:37:20.170Z,56.60
2018-05-16T10:39:48.449Z,56.20
2018-05-16T10:42:17.541Z,52.40
2018-05-16T10:44:45.815Z,52.30
2018-05-16T10:47:14.184Z,52.10
2018-05-16T10:49:42.566Z,54.50
2018-05-16T10:52:10.960Z,53.10
2018-05-16T10:54:39.285Z,54.30
2018-05-16T10:57:07.644Z,51.80
2018-05-16T10:59:35.984Z,51.60
2018-05-16T11:02:04.304Z,51.20
2018-05-16T11:04:33.384Z,52.90
2018-05-16T11:07:01.688Z,52.90
2018-05-16T11:09:29.986Z,52.90
2018-05-16T11:11:58.304Z,53.10
2018-05-16T11:14:26.580Z,51.10
2018-05-16T11:16:54.905Z,50.60
2018-05-16T11:19:23.947Z,51.20
2018-05-16T11:21:52.258Z,51.10
2018-05-16T11:24:20.547Z,50.50
2018-05-16T11:26:49.662Z,52.60
2018-05-16T11:29:18.878Z,52.50
2018-05-16T11:31:47.296Z,52.50
2018-05-16T11:34:15.671Z,52.10
2018-05-16T11:36:44.182Z,51.40
2018-05-16T11:39:12.427Z,52.20
2018-05-16T11:41:40.794Z,51.40
2018-05-16T11:44:09.131Z,51.50
2018-05-16T11:46:37.522Z,51.50
2018-05-16T11:49:05.885Z,52.00
2018-05-16T11:51:34.294Z,51.80
2018-05-16T11:54:02.655Z,51.70
2018-05-16T11:56:31.044Z,52.40
2018-05-16T11:58:59.447Z,50.90
2018-05-16T12:01:27.795Z,51.00
2018-05-16T12:03:56.141Z,52.50
2018-05-16T12:06:25.247Z,50.40
2018-05-16T12:08:54.365Z,49.30
2018-05-16T12:11:22.714Z,49.30
2018-05-16T12:13:51.840Z,51.50
2018-05-16T12:16:20.208Z,51.50
2018-05-16T12:18:48.598Z,52.30
2018-05-16T12:21:16.964Z,50.20
2018-05-16T12:23:45.323Z,51.80
2018-05-16T12:26:14.462Z,48.40
2018-05-16T12:28:42.828Z,48.40
2018-05-16T12:31:11.183Z,50.80
2018-05-16T12:33:40.299Z,49.40
2018-05-16T12:36:08.637Z,49.30
2018-05-16T12:38:37.731Z,49.40
2018-05-16T12:41:06.811Z,46.80
2018-05-16T12:43:35.164Z,46.80
2018-05-16T12:46:03.625Z,52.30
2018-05-16T12:48:31.980Z,49.00
2018-05-16T12:51:01.188Z,48.80
2018-05-16T12:53:30.369Z,45.70
2018-05-16T12:55:58.690Z,45.60
2018-05-16T12:58:27.095Z,44.90
2018-05-16T13:00:55.438Z,44.50
2018-05-16T13:03:23.770Z,45.20
2018-05-16T13:05:52.067Z,47.10
2018-05-16T13:08:20.406Z,46.40
2018-05-16T13:10:48.691Z,46.80
2018-05-16T13:13:16.996Z,48.00
2018-05-16T13:15:45.301Z,50.30
2018-05-16T13:18:13.616Z,50.20
2018-05-16T13:20:41.951Z,51.40
2018-05-16T13:23:10.280Z,51.40
2018-05-16T13:25:38.593Z,50.40
2018-05-16T13:28:07.649Z,49.60
2018-05-16T13:30:35.963Z,49.50
2018-05-16T13:33:05.037Z,48.70
2018-05-16T13:35:33.380Z,48.80
2018-05-16T13:38:01.680Z,50.30
2018-05-16T13:40:30.017Z,50.80
2018-05-16T13:42:58.312Z,50.00
2018-05-16T13:45:26.640Z,50.20
2018-05-16T13:47:54.937Z,52.00
2018-05-16T13:50:24.033Z,54.70
2018-05-16T13:52:52.323Z,54.60
2018-05-16T13:55:20.633Z,56.50
2018-05-16T13:57:49.677Z,57.70
2018-05-16T14:00:18.017Z,57.70
2018-05-16T14:02:46.303Z,56.80
2018-05-16T14:05:14.616Z,56.90
2018-05-16T14:07:42.921Z,53.30
2018-05-16T14:10:11.236Z,53.30
2018-05-16T14:12:39.515Z,52.80
2018-05-16T14:15:07.820Z,49.10
2018-05-16T14:17:36.863Z,47.90
2018-05-16T14:20:06.023Z,48.50
2018-05-16T14:22:34.253Z,48.40
2018-05-16T14:25:02.570Z,46.80
2018-05-16T14:27:31.607Z,46.20
2018-05-16T14:29:59.936Z,46.10
2018-05-16T14:32:28.237Z,48.60
2018-05-16T14:34:56.559Z,48.20
2018-05-16T14:37:24.859Z,48.40
2018-05-16T14:39:53.214Z,48.80
2018-05-16T14:42:21.500Z,47.80
2018-05-16T14:44:49.900Z,47.50
2018-05-16T14:47:18.258Z,47.50
2018-05-16T14:49:46.680Z,47.60
2018-05-16T14:52:15.025Z,49.90
2018-05-16T14:54:43.464Z,51.60
2018-05-16T14:57:11.744Z,50.30
2018-05-16T14:59:40.069Z,51.30
2018-05-16T15:02:09.120Z,49.20
2018-05-16T15:04:37.432Z,49.20
2018-05-16T15:07:05.704Z,50.00
2018-05-16T15:09:34.021Z,50.50
2018-05-16T15:12:02.337Z,50.40
2018-05-16T15:14:30.644Z,51.50
2018-05-16T15:16:58.949Z,51.40
2018-05-16T15:19:27.267Z,52.50
2018-05-16T15:21:55.560Z,54.00
2018-05-16T15:24:23.940Z,54.80
2018-05-16T15:26:52.220Z,54.90
2018-05-16T15:29:20.541Z,55.60
2018-05-16T15:31:48.877Z,55.30
2018-05-16T15:34:17.168Z,56.60
2018-05-16T15:36:46.259Z,59.90
2018-05-16T15:39:14.544Z,59.20
2018-05-16T15:41:42.861Z,61.90
2018-05-16T15:44:11.171Z,66.30
2018-05-16T15:46:39.580Z,69.70
2018-05-16T15:49:07.813Z,71.60
2018-05-16T15:51:36.132Z,72.50
2018-05-16T15:54:05.180Z,76.70
2018-05-16T15:56:33.495Z,76.70
2018-05-16T15:59:01.803Z,77.40
2018-05-16T16:01:30.128Z,79.90
2018-05-16T16:03:58.429Z,81.10
2018-05-16T16:06:26.758Z,81.30
2018-05-16T16:08:55.068Z,80.20
2018-05-16T16:11:23.374Z,81.50
2018-05-16T16:13:52.502Z,82.10
2018-05-16T16:16:20.764Z,82.10
2018-05-16T16:18:49.065Z,83.40
2018-05-16T16:21:17.372Z,85.00
2018-05-16T16:23:45.656Z,85.40
2018-05-16T16:26:13.982Z,83.90
2018-05-16T16:28:42.266Z,83.20
2018-05-16T16:31:11.208Z,82.70
2018-05-16T16:33:39.496Z,82.10
2018-05-16T16:36:08.569Z,84.20
2018-05-16T16:38:36.917Z,83.40
2018-05-16T16:41:05.225Z,83.80
2018-05-16T16:43:33.515Z,83.30
2018-05-16T16:46:01.833Z,84.30
2018-05-16T16:48:30.137Z,84.00
2018-05-16T16:50:58.447Z,84.00
2018-05-16T16:53:26.748Z,81.80
2018-05-16T16:55:55.830Z,79.20
2018-05-16T16:58:24.884Z,79.40
2018-05-16T17:00:53.191Z,79.20
2018-05-16T17:03:21.473Z,80.00
2018-05-16T17:05:49.784Z,80.00
2018-05-16T17:08:18.094Z,79.50
2018-05-16T17:10:46.389Z,79.20
2018-05-16T17:13:14.704Z,79.40
2018-05-16T17:15:43.017Z,79.20
2018-05-16T17:18:11.333Z,80.00
2018-05-16T17:20:39.616Z,80.20
2018-05-16T17:23:07.930Z,80.30
2018-05-16T17:25:36.215Z,80.10
2018-05-16T17:28:05.308Z,80.20
2018-05-16T17:30:33.596Z,79.70
2018-05-16T17:33:01.901Z,80.50
2018-05-16T17:35:30.192Z,79.80
2018-05-16T17:37:58.512Z,80.10
2018-05-16T17:40:26.809Z,79.80
2018-05-16T17:42:55.887Z,82.20
2018-05-16T17:45:24.182Z,81.60
2018-05-16T17:47:53.276Z,83.10
2018-05-16T17:50:21.580Z,82.80
2018-05-16T17:52:49.889Z,83.10
2018-05-16T17:55:18.194Z,83.90
2018-05-16T17:57:46.516Z,83.70
2018-05-16T18:00:14.801Z,84.00
2018-05-16T18:02:43.122Z,83.90
2018-05-16T18:05:11.413Z,83.00
2018-05-16T18:07:39.724Z,83.90
2018-05-16T18:10:08.012Z,83.80
2018-05-16T18:12:36.322Z,84.00
2018-05-16T18:15:18.176Z,84.30
2018-05-16T18:17:46.488Z,85.40
2018-05-16T18:20:14.785Z,84.80
2018-05-16T18:22:43.099Z,84.80
2018-05-16T18:25:11.388Z,84.80
2018-05-16T18:27:39.761Z,85.00
2018-05-16T18:30:08.132Z,84.60
2018-05-16T18:32:36.501Z,85.10
2018-05-16T18:35:04.909Z,85.50
2018-05-16T18:37:33.320Z,85.50
2018-05-16T18:40:01.665Z,85.70
2018-05-16T18:42:30.141Z,86.00
2018-05-16T18:44:58.460Z,86.10
2018-05-16T18:47:26.892Z,86.00
2018-05-16T18:49:55.241Z,85.90
2018-05-16T18:52:23.593Z,86.30
2018-05-16T18:54:51.877Z,86.70
2018-05-16T18:57:20.187Z,86.70
2018-05-16T18:59:48.493Z,87.30
2018-05-16T19:02:16.834Z,87.20
2018-05-16T19:04:45.148Z,87.10
2018-05-16T19:07:13.440Z,87.10
2018-05-16T19:09:42.526Z,87.80
2018-05-16T19:12:10.812Z,87.80
2018-05-16T19:14:39.987Z,88.30
2018-05-16T19:17:08.960Z,88.70
2018-05-16T19:19:37.276Z,88.70
2018-05-16T19:22:06.328Z,89.50
2018-05-16T19:24:34.665Z,89.50
2018-05-16T19:27:02.961Z,90.00
2018-05-16T19:29:31.289Z,90.00
2018-05-16T19:31:59.570Z,90.10
2018-05-16T19:34:27.894Z,90.10
2018-05-16T19:36:56.176Z,90.20
2018-05-16T19:39:24.504Z,90.30
2018-05-16T19:41:52.816Z,90.20
2018-05-16T19:44:21.132Z,90.30
2018-05-16T19:46:49.426Z,90.20
2018-05-16T19:49:17.751Z,90.10
2018-05-16T19:51:46.041Z,90.10
2018-05-16T19:54:14.428Z,90.10
2018-05-16T19:56:42.740Z,90.40
2018-05-16T19:59:11.044Z,90.50
2018-05-16T20:01:39.341Z,90.50
2018-05-16T20:04:07.672Z,90.50
2018-05-16T20:06:35.960Z,90.40
2018-05-16T20:09:05.820Z,90.70
2018-05-16T20:11:34.832Z,90.70
2018-05-16T20:14:03.141Z,90.60
2018-05-16T20:16:32.382Z,90.50
2018-05-16T20:19:00.799Z,90.30
2018-05-16T20:21:29.183Z,90.40
2018-05-16T20:23:57.594Z,90.40
2018-05-16T20:26:26.714Z,90.10
2018-05-16T20:28:55.149Z,90.10
2018-05-16T20:31:23.546Z,90.00
2018-05-16T20:33:52.689Z,89.70
2018-05-16T20:36:21.044Z,89.70
2018-05-16T20:38:49.407Z,90.30
2018-05-16T20:41:18.522Z,90.10
2018-05-16T20:43:46.847Z,90.10
2018-05-16T20:46:15.149Z,90.20
2018-05-16T20:48:44.238Z,90.20
2018-05-16T20:51:12.527Z,90.10
2018-05-16T20:53:40.832Z,90.00
2018-05-16T20:56:09.152Z,90.20
2018-05-16T20:58:37.490Z,90.20
2018-05-16T21:01:05.785Z,90.20
2018-05-16T21:03:34.085Z,90.20
2018-05-16T21:06:02.409Z,90.20
2018-05-16T21:08:30.714Z,90.10
2018-05-16T21:10:59.064Z,90.10
2018-05-16T21:13:27.353Z,90.10
2018-05-16T21:15:55.656Z,90.20
2018-05-16T21:18:23.936Z,90.20
2018-05-16T21:20:52.257Z,90.10
2018-05-16T21:23:21.328Z,90.20
2018-05-16T21:25:49.684Z,90.20
2018-05-16T21:28:18.034Z,90.20
2018-05-16T21:30:46.457Z,90.10
2018-05-16T21:33:14.825Z,90.00
2018-05-16T21:35:43.209Z,89.20
2018-05-16T21:38:11.534Z,89.60
2018-05-16T21:40:39.897Z,89.80
2018-05-16T21:43:08.225Z,89.50
2018-05-16T21:45:36.564Z,89.50
2018-05-16T21:48:05.622Z,90.00
2018-05-16T21:50:33.939Z,90.00
2018-05-16T21:53:02.220Z,90.00
2018-05-16T21:55:30.535Z,90.00
2018-05-16T21:57:59.592Z,90.00
2018-05-16T22:00:27.919Z,90.00
2018-05-16T22:02:56.218Z,90.10
2018-05-16T22:05:25.301Z,90.20
2018-05-16T22:07:53.588Z,89.90
2018-05-16T22:10:21.952Z,89.30
2018-05-16T22:12:50.307Z,89.40
2018-05-16T22:15:18.717Z,89.50
2018-05-16T22:17:47.061Z,89.70
2018-05-16T22:20:15.432Z,89.80
2018-05-16T22:22:43.789Z,89.80
2018-05-16T22:25:12.148Z,90.00
2018-05-16T22:27:40.444Z,90.00
2018-05-16T22:30:09.020Z,89.90
2018-05-16T22:32:43.790Z,89.80
2018-05-16T22:35:17.692Z,89.70
2018-05-16T22:37:51.600Z,89.90
2018-05-16T22:40:25.661Z,89.90
2018-05-16T22:42:53.455Z,89.80
2018-05-16T22:45:22.588Z,89.80
2018-05-16T22:47:50.876Z,89.70
2018-05-16T22:50:19.205Z,89.50
2018-05-16T22:52:47.493Z,89.50
2018-05-16T22:55:15.808Z,89.00
2018-05-16T22:57:44.126Z,89.20
2018-05-16T23:00:13.175Z,90.10
2018-05-16T23:02:41.276Z,89.50
2018-05-16T23:05:09.600Z,89.40
2018-05-16T23:07:37.943Z,89.70
2018-05-16T23:10:06.225Z,90.00
2018-05-16T23:12:34.556Z,90.00
2018-05-16T23:15:02.851Z,90.00
2018-05-16T23:17:31.203Z,90.10
2018-05-16T23:19:59.489Z,90.20
2018-05-16T23:22:27.810Z,90.30
2018-05-16T23:24:56.127Z,90.20
2018-05-16T23:27:24.444Z,90.30
2018-05-16T23:29:52.732Z,90.40
2018-05-16T23:32:21.155Z,90.30
2018-05-16T23:34:49.368Z,90.70
2018-05-16T23:37:17.680Z,90.20
2018-05-16T23:39:45.999Z,90.20
2018-05-16T23:42:14.309Z,90.10
2018-05-16T23:44:42.587Z,90.20
2018-05-16T23:47:10.899Z,90.00
2018-05-16T23:49:39.192Z,90.00
2018-05-16T23:52:07.514Z,90.10
2018-05-16T23:54:35.801Z,90.10
2018-05-16T23:57:04.119Z,90.00
2018-05-16T23:59:32.428Z,90.20
